This is the latest recevied weather packets stored in our database for station/object SP1BMW-13. If no packets are shown the sender has not sent any weather packets the latest 10 day(s).
| Time | Temp. | Humidity | Pressure | Rain* | Wind** | Luminosity | Snow |
|---|---|---|---|---|---|---|---|
| 1778219580 | 7.78° C | 70% | 1019.6 hPa | 0 mm | 0.89 m/s, 332° | 169 W/m² | - |
| 1778219523 | 7.78° C | 71% | 1019.4 hPa | 0 mm | 1.34 m/s, 338° | 166 W/m² | - |
| 1778219460 | 7.78° C | 70% | 1019.5 hPa | 0 mm | 0.45 m/s, 50° | 162 W/m² | - |
| 1778219400 | 7.78° C | 70% | 1019.5 hPa | 0 mm | 0.89 m/s, 45° | 160 W/m² | - |
| 1778219340 | 7.78° C | 71% | 1019.4 hPa | 0 mm | 1.34 m/s, 334° | 157 W/m² | - |
| 1778219283 | 7.78° C | 71% | 1019.3 hPa | 0 mm | 1.34 m/s, 324° | 155 W/m² | - |
| 1778219220 | 7.78° C | 72% | 1019.3 hPa | 0 mm | 0.89 m/s, 48° | 152 W/m² | - |
| 1778219160 | 7.78° C | 72% | 1019.4 hPa | 0 mm | 0.89 m/s, 23° | 149 W/m² | - |
| 1778219101 | 7.78° C | 71% | 1019.4 hPa | 0 mm | 0.89 m/s, 243° | 145 W/m² | - |
| 1778219040 | 7.78° C | 72% | 1019.5 hPa | 0 mm | 1.79 m/s, 316° | 143 W/m² | - |
| 1778218980 | 7.78° C | 71% | 1019.5 hPa | 0 mm | 0.45 m/s, 20° | 141 W/m² | - |
| 1778218920 | 7.78° C | 71% | 1019.4 hPa | 0 mm | 1.79 m/s, 335° | 139 W/m² | - |
| 1778218860 | 7.78° C | 71% | 1019.5 hPa | 0 mm | 0.89 m/s, 338° | 137 W/m² | - |
| 1778218800 | 7.78° C | 72% | 1019.4 hPa | 0 mm | 1.79 m/s, 322° | 135 W/m² | - |
| 1778218740 | 7.78° C | 71% | 1019.3 hPa | 0 mm | 1.34 m/s, 347° | 134 W/m² | - |
| 1778218680 | 7.78° C | 71% | 1019.3 hPa | 0 mm | 1.34 m/s, 291° | 131 W/m² | - |
| 1778218620 | 7.78° C | 72% | 1019.6 hPa | 0 mm | 0.89 m/s, 21° | 127 W/m² | - |
| 1778218560 | 7.78° C | 71% | 1019.4 hPa | 0 mm | 0.89 m/s, 318° | 125 W/m² | - |
| 1778218506 | 7.78° C | 71% | 1019.3 hPa | 0 mm | 1.34 m/s, 332° | 124 W/m² | - |
| 1778218440 | 7.78° C | 71% | 1019.2 hPa | 0 mm | 1.34 m/s, 330° | 122 W/m² | - |
| 1778218380 | 7.78° C | 70% | 1019.2 hPa | 0 mm | 0.89 m/s, 14° | 120 W/m² | - |
| 1778218321 | 7.78° C | 70% | 1019.5 hPa | 0 mm | 2.24 m/s, 331° | 117 W/m² | - |
| 1778218263 | 7.78° C | 71% | 1019.4 hPa | 0 mm | 0.45 m/s, 347° | 114 W/m² | - |
| 1778218200 | 7.78° C | 71% | 1019.4 hPa | 0 mm | 0.45 m/s, 307° | 112 W/m² | - |
| 1778218140 | 7.78° C | 70% | 1019.5 hPa | 0 mm | 1.34 m/s, 309° | 108 W/m² | - |
* Rain latest hour (hover to see other rain measurements)
** Current wind speed in m/s (hover to see current wind gust speed)